GXA121 TNCC-TTCP
Flight info
| Callsign | GXA121 |
|---|---|
| Flight time | N/A |
| Altitude | 37000 |
| Route | BONAX1K BONAX UL219 MEGIR UP671 POS UR515 TAB |
| Aircraft | A320/M-SDE3FGHIRWY/LB1 |
Departure
| Time | 2026-04-24 16:19 |
|---|---|
| Airport | Hato International Airport (TNCC) |
Arrival
| Time | N/A |
|---|---|
| Airport | A.N.R. Robinson International Airport (TTCP) |
| Time | Latitude | Longitude | Altitude | Speed | Heading |
|---|---|---|---|---|---|
| 2026-04-24 15:53 | 12.18544 | -68.95681 | 43 ft | 0 kts | 192° |
| 2026-04-24 16:06 | 12.18545 | -68.95681 | 43 ft | 2 kts | 192° |
| 2026-04-24 16:07 | 12.18570 | -68.95675 | 41 ft | 4 kts | 194° |
| 2026-04-24 16:07 | 12.18596 | -68.95668 | 40 ft | 4 kts | 198° |
| 2026-04-24 16:07 | 12.18638 | -68.95641 | 40 ft | 4 kts | 261° |
| 2026-04-24 16:08 | 12.18639 | -68.95634 | 41 ft | 0 kts | 283° |
| 2026-04-24 16:11 | 12.18664 | -68.95746 | 42 ft | 19 kts | 281° |
| 2026-04-24 16:11 | 12.18673 | -68.95787 | 43 ft | 0 kts | 282° |
| 2026-04-24 16:13 | 12.18673 | -68.95789 | 43 ft | 2 kts | 279° |
| 2026-04-24 16:13 | 12.18704 | -68.95927 | 43 ft | 10 kts | 281° |
| 2026-04-24 16:14 | 12.18729 | -68.96062 | 43 ft | 12 kts | 281° |
| 2026-04-24 16:14 | 12.18745 | -68.96141 | 43 ft | 11 kts | 281° |
| 2026-04-24 16:14 | 12.18773 | -68.96274 | 43 ft | 10 kts | 282° |
| 2026-04-24 16:15 | 12.18791 | -68.96356 | 43 ft | 26 kts | 282° |
| 2026-04-24 16:15 | 12.18880 | -68.96788 | 41 ft | 27 kts | 282° |
| 2026-04-24 16:16 | 12.18964 | -68.97183 | 40 ft | 30 kts | 282° |
| 2026-04-24 16:16 | 12.19009 | -68.97396 | 39 ft | 31 kts | 282° |
| 2026-04-24 16:17 | 12.19186 | -68.97571 | 39 ft | 10 kts | 12° |
| 2026-04-24 16:17 | 12.19127 | -68.97091 | 38 ft | 93 kts | 102° |
| 2026-04-24 16:18 | 12.18996 | -68.96481 | 42 ft | 135 kts | 102° |
| 2026-04-24 16:18 | 12.18915 | -68.96091 | 44 ft | 151 kts | 103° |
| 2026-04-24 16:19 | 12.18408 | -68.93729 | 1094 ft | 172 kts | 103° |
| 2026-04-24 16:19 | 12.18141 | -68.92523 | 1940 ft | 174 kts | 102° |
| 2026-04-24 16:20 | 12.17620 | -68.89981 | 3030 ft | 203 kts | 101° |
| 2026-04-24 16:20 | 12.17258 | -68.86765 | 3879 ft | 251 kts | 95° |
| 2026-04-24 16:20 | 12.17109 | -68.84958 | 4646 ft | 262 kts | 95° |
| 2026-04-24 16:21 | 12.16796 | -68.81168 | 6172 ft | 274 kts | 95° |
| 2026-04-24 16:21 | 12.16628 | -68.79195 | 6869 ft | 281 kts | 95° |
| 2026-04-24 16:21 | 12.16455 | -68.77206 | 7596 ft | 286 kts | 95° |
| 2026-04-24 16:22 | 12.16275 | -68.75170 | 8348 ft | 290 kts | 95° |
| 2026-04-24 16:22 | 12.16005 | -68.72181 | 9432 ft | 296 kts | 95° |
| 2026-04-24 16:22 | 12.15843 | -68.70423 | 10038 ft | 299 kts | 95° |
| 2026-04-24 16:23 | 12.15661 | -68.68454 | 10366 ft | 316 kts | 95° |
| 2026-04-24 16:23 | 12.15518 | -68.66884 | 10486 ft | 332 kts | 95° |
| 2026-04-24 16:23 | 12.15469 | -68.66341 | 10519 ft | 337 kts | 95° |
| 2026-04-24 16:24 | 12.15180 | -68.63200 | 10810 ft | 360 kts | 95° |
| 2026-04-24 16:24 | 12.14942 | -68.60626 | 11398 ft | 365 kts | 95° |
| 2026-04-24 16:24 | 12.14706 | -68.58025 | 11996 ft | 370 kts | 95° |
| 2026-04-24 16:24 | 12.14467 | -68.55396 | 12635 ft | 373 kts | 95° |
| 2026-04-24 16:25 | 12.14224 | -68.52736 | 13236 ft | 377 kts | 95° |
| 2026-04-24 16:25 | 12.13977 | -68.50051 | 13808 ft | 382 kts | 95° |
| 2026-04-24 16:25 | 12.13728 | -68.47366 | 14334 ft | 385 kts | 96° |
| 2026-04-24 16:26 | 12.13225 | -68.41877 | 15420 ft | 391 kts | 96° |
| 2026-04-24 16:26 | 12.12973 | -68.39106 | 15980 ft | 393 kts | 96° |
| 2026-04-24 16:26 | 12.12465 | -68.33512 | 17059 ft | 398 kts | 96° |
| 2026-04-24 16:27 | 12.12208 | -68.30689 | 17602 ft | 400 kts | 96° |
| 2026-04-24 16:27 | 12.11949 | -68.27851 | 18147 ft | 402 kts | 96° |
| 2026-04-24 16:27 | 12.11687 | -68.24995 | 18606 ft | 405 kts | 97° |
| 2026-04-24 16:27 | 12.11418 | -68.22121 | 19054 ft | 408 kts | 96° |
| 2026-04-24 16:28 | 12.11148 | -68.19218 | 19514 ft | 411 kts | 96° |
| 2026-04-24 16:28 | 12.10880 | -68.16309 | 19962 ft | 413 kts | 97° |
| 2026-04-24 16:28 | 12.10342 | -68.10415 | 20853 ft | 419 kts | 96° |
| 2026-04-24 16:29 | 12.10069 | -68.07440 | 21268 ft | 422 kts | 97° |
| 2026-04-24 16:29 | 12.09796 | -68.04444 | 21692 ft | 425 kts | 96° |
| 2026-04-24 16:29 | 12.09244 | -67.98432 | 22494 ft | 430 kts | 97° |
| 2026-04-24 16:30 | 12.08670 | -67.92297 | 23267 ft | 436 kts | 97° |
| 2026-04-24 16:30 | 12.08377 | -67.89207 | 23623 ft | 438 kts | 97° |
| 2026-04-24 16:30 | 12.08086 | -67.86099 | 23931 ft | 441 kts | 97° |
| 2026-04-24 16:31 | 12.07680 | -67.82990 | 24235 ft | 442 kts | 103° |
| 2026-04-24 16:31 | 12.06850 | -67.79972 | 24534 ft | 442 kts | 109° |
| 2026-04-24 16:31 | 12.05905 | -67.76973 | 24829 ft | 445 kts | 109° |
| 2026-04-24 16:31 | 12.04955 | -67.73955 | 25122 ft | 447 kts | 109° |
| 2026-04-24 16:32 | 12.04324 | -67.71946 | 25302 ft | 448 kts | 109° |
| 2026-04-24 16:32 | 12.03048 | -67.67874 | 25687 ft | 451 kts | 109° |
| 2026-04-24 16:32 | 12.02094 | -67.64820 | 25967 ft | 453 kts | 109° |
| 2026-04-24 16:32 | 12.01130 | -67.61738 | 26243 ft | 455 kts | 109° |
| 2026-04-24 16:33 | 12.00164 | -67.58652 | 26517 ft | 457 kts | 109° |
| 2026-04-24 16:33 | 11.99190 | -67.55555 | 26793 ft | 459 kts | 109° |
| 2026-04-24 16:33 | 11.98225 | -67.52482 | 27061 ft | 461 kts | 109° |
| 2026-04-24 16:33 | 11.97244 | -67.49362 | 27333 ft | 462 kts | 109° |
| 2026-04-24 16:34 | 11.96256 | -67.46225 | 27590 ft | 464 kts | 109° |
| 2026-04-24 16:34 | 11.95265 | -67.43072 | 27843 ft | 466 kts | 109° |
| 2026-04-24 16:34 | 11.94275 | -67.39927 | 28092 ft | 468 kts | 109° |
| 2026-04-24 16:34 | 11.93274 | -67.36746 | 28318 ft | 470 kts | 109° |
| 2026-04-24 16:35 | 11.92267 | -67.33554 | 28563 ft | 472 kts | 109° |
| 2026-04-24 16:35 | 11.91267 | -67.30395 | 28793 ft | 473 kts | 109° |
| 2026-04-24 16:35 | 11.90248 | -67.27187 | 29010 ft | 475 kts | 109° |
| 2026-04-24 16:35 | 11.89224 | -67.23959 | 29224 ft | 477 kts | 109° |
| 2026-04-24 16:36 | 11.88203 | -67.20736 | 29432 ft | 478 kts | 109° |
| 2026-04-24 16:36 | 11.87179 | -67.17497 | 29631 ft | 480 kts | 109° |
| 2026-04-24 16:36 | 11.86154 | -67.14244 | 29832 ft | 481 kts | 109° |
| 2026-04-24 16:36 | 11.85126 | -67.10995 | 30104 ft | 481 kts | 109° |
| 2026-04-24 16:37 | 11.84098 | -67.07747 | 30345 ft | 480 kts | 109° |
| 2026-04-24 16:37 | 11.83075 | -67.04509 | 30586 ft | 479 kts | 109° |
| 2026-04-24 16:37 | 11.82397 | -67.02357 | 30745 ft | 479 kts | 109° |
| 2026-04-24 16:37 | 11.81034 | -66.98033 | 31078 ft | 478 kts | 110° |
| 2026-04-24 16:38 | 11.80025 | -66.94847 | 31320 ft | 478 kts | 110° |
| 2026-04-24 16:38 | 11.79000 | -66.91619 | 31579 ft | 477 kts | 110° |
| 2026-04-24 16:38 | 11.77976 | -66.88394 | 31854 ft | 476 kts | 110° |
| 2026-04-24 16:38 | 11.76973 | -66.85179 | 32169 ft | 473 kts | 109° |
| 2026-04-24 16:39 | 11.75994 | -66.81977 | 32472 ft | 472 kts | 109° |
| 2026-04-24 16:39 | 11.75027 | -66.78778 | 32746 ft | 471 kts | 109° |
| 2026-04-24 16:39 | 11.74066 | -66.75587 | 33016 ft | 470 kts | 109° |
| 2026-04-24 16:39 | 11.73102 | -66.72393 | 33280 ft | 470 kts | 109° |
| 2026-04-24 16:40 | 11.72150 | -66.69251 | 33543 ft | 469 kts | 109° |
| 2026-04-24 16:40 | 11.71182 | -66.66073 | 33805 ft | 469 kts | 109° |
| 2026-04-24 16:40 | 11.70211 | -66.62899 | 34061 ft | 468 kts | 109° |
| 2026-04-24 16:40 | 11.69242 | -66.59731 | 34300 ft | 467 kts | 109° |
| 2026-04-24 16:41 | 11.68275 | -66.56571 | 34543 ft | 467 kts | 110° |
| 2026-04-24 16:41 | 11.67308 | -66.53405 | 34754 ft | 467 kts | 110° |
| 2026-04-24 16:41 | 11.66653 | -66.51261 | 34905 ft | 467 kts | 110° |
| 2026-04-24 16:41 | 11.65685 | -66.48097 | 35126 ft | 466 kts | 110° |
| 2026-04-24 16:42 | 11.64731 | -66.44980 | 35350 ft | 465 kts | 110° |
| 2026-04-24 16:42 | 11.63768 | -66.41825 | 35568 ft | 465 kts | 110° |
| 2026-04-24 16:42 | 11.62808 | -66.38683 | 35786 ft | 464 kts | 110° |
| 2026-04-24 16:42 | 11.61849 | -66.35539 | 36004 ft | 463 kts | 110° |
| 2026-04-24 16:43 | 11.60892 | -66.32399 | 36213 ft | 462 kts | 110° |
| 2026-04-24 16:43 | 11.59938 | -66.29278 | 36416 ft | 461 kts | 110° |
| 2026-04-24 16:43 | 11.58979 | -66.26149 | 36615 ft | 461 kts | 110° |
| 2026-04-24 16:43 | 11.58023 | -66.23027 | 36789 ft | 460 kts | 110° |
| 2026-04-24 16:44 | 11.57070 | -66.19912 | 36957 ft | 460 kts | 110° |
| 2026-04-24 16:44 | 11.56128 | -66.16834 | 36981 ft | 461 kts | 110° |
| 2026-04-24 16:44 | 11.54211 | -66.10598 | 36980 ft | 461 kts | 110° |
| 2026-04-24 16:45 | 11.52289 | -66.04359 | 36981 ft | 461 kts | 110° |
| 2026-04-24 16:45 | 11.50380 | -65.98144 | 36982 ft | 461 kts | 110° |
| 2026-04-24 16:46 | 11.48464 | -65.91905 | 36975 ft | 461 kts | 110° |
| 2026-04-24 16:46 | 11.46541 | -65.85659 | 36980 ft | 460 kts | 110° |
| 2026-04-24 16:47 | 11.44622 | -65.79435 | 36983 ft | 460 kts | 110° |
| 2026-04-24 16:47 | 11.42706 | -65.73206 | 36986 ft | 460 kts | 110° |
| 2026-04-24 16:48 | 11.40786 | -65.66987 | 36985 ft | 460 kts | 110° |
| 2026-04-24 16:48 | 11.38869 | -65.60797 | 36984 ft | 460 kts | 110° |
| 2026-04-24 16:49 | 11.36938 | -65.54568 | 36984 ft | 460 kts | 110° |
| 2026-04-24 16:49 | 11.35010 | -65.48345 | 36984 ft | 460 kts | 110° |
| 2026-04-24 16:50 | 11.33085 | -65.42121 | 36985 ft | 460 kts | 110° |
| 2026-04-24 16:50 | 11.31174 | -65.35944 | 36986 ft | 460 kts | 110° |
| 2026-04-24 16:51 | 11.29244 | -65.29724 | 36990 ft | 460 kts | 110° |
| 2026-04-24 16:51 | 11.27316 | -65.23507 | 36996 ft | 459 kts | 110° |
| 2026-04-24 16:52 | 11.25391 | -65.17301 | 36994 ft | 459 kts | 110° |
| 2026-04-24 16:52 | 11.23459 | -65.11098 | 36994 ft | 458 kts | 110° |
| 2026-04-24 16:53 | 11.21542 | -65.04945 | 36989 ft | 458 kts | 110° |
| 2026-04-24 16:53 | 11.19607 | -64.98749 | 36988 ft | 458 kts | 110° |
| 2026-04-24 16:54 | 11.17678 | -64.92579 | 36989 ft | 457 kts | 110° |
| 2026-04-24 16:54 | 11.15762 | -64.86439 | 36988 ft | 457 kts | 110° |
| 2026-04-24 16:55 | 11.13839 | -64.80257 | 36985 ft | 457 kts | 110° |
| 2026-04-24 16:55 | 11.11914 | -64.74085 | 36985 ft | 457 kts | 110° |
| 2026-04-24 16:56 | 11.09975 | -64.67913 | 36987 ft | 457 kts | 110° |
| 2026-04-24 16:56 | 11.08046 | -64.61741 | 36987 ft | 457 kts | 110° |
| 2026-04-24 16:57 | 11.06354 | -64.55491 | 36986 ft | 459 kts | 107° |
| 2026-04-24 16:57 | 11.04865 | -64.49217 | 36987 ft | 459 kts | 106° |
| 2026-04-24 16:58 | 11.03345 | -64.42896 | 36983 ft | 459 kts | 107° |
| 2026-04-24 16:58 | 11.01764 | -64.36602 | 36981 ft | 459 kts | 107° |
| 2026-04-24 16:59 | 11.00164 | -64.30316 | 36983 ft | 458 kts | 107° |
| 2026-04-24 17:00 | 10.97788 | -64.20923 | 36982 ft | 458 kts | 107° |
| 2026-04-24 17:00 | 10.95412 | -64.11500 | 36982 ft | 458 kts | 107° |
| 2026-04-24 17:01 | 10.93034 | -64.02086 | 36980 ft | 457 kts | 107° |
| 2026-04-24 17:02 | 10.90735 | -63.92712 | 36985 ft | 457 kts | 104° |
| 2026-04-24 17:02 | 10.89535 | -63.86358 | 36981 ft | 457 kts | 102° |
| 2026-04-24 17:03 | 10.87874 | -63.76798 | 36977 ft | 456 kts | 103° |
| 2026-04-24 17:04 | 10.86692 | -63.70448 | 36980 ft | 456 kts | 103° |
| 2026-04-24 17:04 | 10.84892 | -63.60989 | 36979 ft | 455 kts | 103° |
| 2026-04-24 17:05 | 10.83690 | -63.54664 | 36975 ft | 455 kts | 103° |
| 2026-04-24 17:06 | 10.81915 | -63.45183 | 36976 ft | 455 kts | 103° |
| 2026-04-24 17:06 | 10.80121 | -63.35710 | 36977 ft | 454 kts | 103° |
| 2026-04-24 17:07 | 10.78935 | -63.29449 | 36967 ft | 453 kts | 103° |
| 2026-04-24 17:08 | 10.76553 | -63.16862 | 36979 ft | 452 kts | 103° |
| 2026-04-24 17:08 | 10.75360 | -63.10589 | 36978 ft | 451 kts | 104° |
| 2026-04-24 17:09 | 10.72982 | -62.98082 | 36977 ft | 451 kts | 103° |
| 2026-04-24 17:10 | 10.70597 | -62.85583 | 36981 ft | 451 kts | 104° |
| 2026-04-24 17:12 | 10.65811 | -62.60535 | 36981 ft | 451 kts | 104° |